Time;durP1;ratioP1;P1;durP2;ratioP2;P2;SDS_P1;SDS_P2;PMS_P1;PMS_P2;Temp;Humidity;BMP_temperature;BMP_pressure;BME280_temperature;BME280_humidity;BME280_pressure;Samples;Min_cycle;Max_cycle;Signal;HPM_P1;HPM_P2
2024/01/30 00:02:11;;;;;;;2.38;1.60;;;19.30;51.30;;;;;;4976709;28;20113;-48
2024/01/30 00:04:37;;;;;;;2.63;1.75;;;19.30;51.30;;;;;;4998164;28;20033;-46
2024/01/30 00:07:03;;;;;;;2.15;1.60;;;19.30;51.40;;;;;;4996865;28;20034;-48
2024/01/30 00:09:28;;;;;;;2.97;1.48;;;19.30;51.30;;;;;;5000772;28;20061;-48
2024/01/30 00:11:54;;;;;;;2.42;1.58;;;19.30;51.30;;;;;;4996982;28;20041;-48
2024/01/30 00:14:19;;;;;;;2.90;1.65;;;19.30;51.30;;;;;;5002651;28;20038;-49
2024/01/30 00:16:45;;;;;;;2.70;1.67;;;19.30;51.30;;;;;;4992121;28;20042;-52
2024/01/30 00:19:11;;;;;;;2.40;1.88;;;19.30;51.30;;;;;;4994726;28;20483;-52
2024/01/30 00:21:36;;;;;;;1.58;1.45;;;19.30;51.30;;;;;;4995829;28;20136;-48
2024/01/30 00:24:02;;;;;;;2.00;1.38;;;19.30;51.20;;;;;;4995025;28;20677;-49
2024/01/30 00:26:27;;;;;;;2.00;1.77;;;19.30;51.20;;;;;;4992518;28;20042;-49
2024/01/30 00:28:53;;;;;;;2.22;1.63;;;19.30;51.20;;;;;;4993129;28;20459;-48
2024/01/30 00:31:18;;;;;;;2.25;1.48;;;19.30;51.20;;;;;;4997564;28;20042;-48
2024/01/30 00:33:43;;;;;;;2.30;1.60;;;19.30;51.20;;;;;;4992282;28;20561;-49
2024/01/30 00:36:10;;;;;;;2.17;1.50;;;19.30;51.20;;;;;;4991741;28;20030;-50
2024/01/30 00:38:36;;;;;;;2.40;1.60;;;19.30;51.20;;;;;;4994946;28;20492;-48
2024/01/30 00:41:04;;;;;;;3.15;1.58;;;19.30;51.20;;;;;;4991520;28;20115;-49
2024/01/30 00:43:31;;;;;;;2.85;1.40;;;19.30;51.20;;;;;;4995650;28;20068;-49
2024/01/30 00:45:57;;;;;;;2.20;1.40;;;19.30;51.20;;;;;;4991951;28;20125;-48
2024/01/30 00:48:22;;;;;;;2.25;1.80;;;19.30;51.20;;;;;;4994198;28;20109;-50
2024/01/30 00:50:48;;;;;;;1.80;1.48;;;19.30;51.10;;;;;;4995719;28;20511;-51
2024/01/30 00:53:13;;;;;;;2.83;1.42;;;19.30;51.10;;;;;;4997985;28;20383;-50
2024/01/30 00:55:39;;;;;;;2.47;1.67;;;19.30;51.10;;;;;;4995594;28;20026;-50
2024/01/30 00:58:04;;;;;;;1.90;1.40;;;19.30;51.20;;;;;;4994800;28;20051;-51
2024/01/30 01:00:31;;;;;;;2.53;1.85;;;19.30;51.10;;;;;;5001822;28;20038;-52
2024/01/30 01:03:00;;;;;;;2.00;1.35;;;19.30;51.20;;;;;;4991385;28;20045;-51
2024/01/30 01:05:25;;;;;;;1.60;1.40;;;19.30;51.20;;;;;;4996004;28;20033;-49
2024/01/30 01:07:51;;;;;;;1.95;1.52;;;19.30;51.20;;;;;;4993645;28;20522;-55
2024/01/30 01:10:18;;;;;;;1.67;1.48;;;19.20;51.20;;;;;;4993553;28;20084;-48
2024/01/30 01:12:43;;;;;;;2.17;1.30;;;19.20;51.30;;;;;;4992969;28;20396;-48
2024/01/30 01:15:09;;;;;;;2.22;1.30;;;19.20;51.40;;;;;;4996138;28;20026;-51
2024/01/30 01:17:36;;;;;;;2.22;1.30;;;19.10;51.30;;;;;;4992366;28;20030;-48
2024/01/30 01:20:02;;;;;;;1.50;1.40;;;19.10;51.40;;;;;;4995289;28;20038;-48
2024/01/30 01:22:28;;;;;;;4.13;1.50;;;19.10;51.40;;;;;;4996671;28;20080;-49
2024/01/30 01:24:53;;;;;;;2.17;1.45;;;19.10;51.40;;;;;;4994067;28;20092;-51
2024/01/30 01:27:19;;;;;;;2.63;1.42;;;19.10;51.40;;;;;;4993377;28;20040;-47
2024/01/30 01:29:45;;;;;;;2.03;1.58;;;19.10;51.40;;;;;;4991891;28;20439;-50
2024/01/30 01:32:11;;;;;;;1.60;1.35;;;19.10;51.40;;;;;;4993709;28;20084;-48
2024/01/30 01:34:36;;;;;;;2.30;1.48;;;19.00;51.50;;;;;;4995511;28;20029;-49
2024/01/30 01:37:02;;;;;;;1.90;1.60;;;19.00;51.50;;;;;;4992031;28;20511;-49
2024/01/30 01:39:27;;;;;;;2.13;1.50;;;19.10;51.50;;;;;;4999480;28;20042;-49
2024/01/30 01:41:53;;;;;;;2.40;1.10;;;19.00;51.40;;;;;;4991596;28;20554;-48
2024/01/30 01:44:19;;;;;;;1.45;1.30;;;19.10;51.50;;;;;;4985633;28;20030;-51
2024/01/30 01:46:44;;;;;;;2.65;1.42;;;19.00;51.50;;;;;;4993877;28;20079;-48
2024/01/30 01:49:10;;;;;;;1.92;1.52;;;19.00;51.50;;;;;;4991549;28;22214;-52
2024/01/30 01:51:37;;;;;;;2.13;1.52;;;19.00;51.60;;;;;;4991166;28;20031;-49
2024/01/30 01:54:05;;;;;;;2.60;1.30;;;19.00;51.50;;;;;;4996144;28;20057;-48
2024/01/30 01:56:31;;;;;;;2.10;1.70;;;19.10;51.50;;;;;;4995414;28;20387;-52
2024/01/30 01:59:04;;;;;;;1.50;1.35;;;19.10;51.40;;;;;;4992458;28;20463;-48
2024/01/30 02:01:31;;;;;;;1.60;1.30;;;19.10;51.30;;;;;;4982383;28;20033;-49
2024/01/30 02:03:56;;;;;;;1.33;1.23;;;19.20;51.30;;;;;;4989500;28;20038;-48
2024/01/30 02:06:22;;;;;;;2.72;1.17;;;19.20;51.20;;;;;;4997115;28;20084;-47
2024/01/30 02:08:48;;;;;;;1.35;1.23;;;19.20;51.10;;;;;;4995651;28;20035;-49
2024/01/30 02:11:13;;;;;;;2.20;1.33;;;19.30;51.10;;;;;;4999370;28;26204;-50
2024/01/30 02:13:40;;;;;;;1.65;1.38;;;19.30;51.00;;;;;;4989728;28;20031;-50
2024/01/30 02:16:06;;;;;;;1.52;1.38;;;19.30;50.90;;;;;;4996433;28;20045;-48
2024/01/30 02:18:31;;;;;;;2.03;1.20;;;19.40;50.90;;;;;;4993330;28;20025;-47
2024/01/30 02:21:01;;;;;;;3.58;1.27;;;19.40;50.90;;;;;;4991804;28;20042;-48
2024/01/30 02:23:27;;;;;;;1.77;1.45;;;19.40;50.80;;;;;;4995443;28;20160;-48
2024/01/30 02:25:53;;;;;;;1.58;1.35;;;19.40;50.80;;;;;;4990798;28;20117;-47
2024/01/30 02:28:19;;;;;;;1.80;1.15;;;19.40;50.80;;;;;;4991084;28;20022;-47
2024/01/30 02:30:46;;;;;;;1.77;1.25;;;19.40;50.80;;;;;;4993541;28;20033;-48
2024/01/30 02:33:12;;;;;;;1.42;1.10;;;19.40;50.80;;;;;;4992876;28;20041;-48
2024/01/30 02:35:38;;;;;;;2.03;1.40;;;19.40;50.80;;;;;;4991132;28;20502;-50
2024/01/30 02:38:04;;;;;;;1.60;1.10;;;19.50;50.80;;;;;;4994177;28;20054;-52
2024/01/30 02:40:29;;;;;;;1.05;0.95;;;19.40;50.70;;;;;;4991045;28;20028;-50
2024/01/30 02:42:55;;;;;;;1.30;1.20;;;19.50;51.10;;;;;;4990895;28;20125;-49
2024/01/30 02:45:21;;;;;;;2.17;1.13;;;19.50;50.80;;;;;;4978590;28;20038;-48
2024/01/30 02:47:46;;;;;;;1.65;1.30;;;19.50;50.80;;;;;;4989113;28;20040;-51
2024/01/30 02:50:12;;;;;;;1.35;1.10;;;19.50;50.80;;;;;;4993952;28;20037;-48
2024/01/30 02:52:37;;;;;;;1.33;1.10;;;19.50;50.70;;;;;;4995542;28;20483;-48
2024/01/30 02:55:03;;;;;;;2.88;1.13;;;19.50;50.70;;;;;;4973915;28;20456;-47
2024/01/30 02:57:29;;;;;;;1.67;1.17;;;19.50;50.70;;;;;;4999844;28;20054;-48
2024/01/30 02:59:54;;;;;;;1.77;1.20;;;19.50;50.60;;;;;;4985744;28;20099;-51
2024/01/30 03:02:20;;;;;;;1.50;1.23;;;19.50;50.70;;;;;;4988874;28;20038;-50
2024/01/30 03:04:45;;;;;;;1.50;1.30;;;19.50;50.60;;;;;;4984293;28;20049;-48
2024/01/30 03:07:11;;;;;;;1.23;1.13;;;19.50;50.70;;;;;;4983377;28;20042;-47
2024/01/30 03:09:37;;;;;;;2.20;1.60;;;19.50;50.70;;;;;;4989194;28;20070;-50
2024/01/30 03:12:03;;;;;;;1.55;1.20;;;19.50;50.60;;;;;;4991071;28;20391;-50
2024/01/30 03:14:31;;;;;;;1.08;0.85;;;19.50;50.60;;;;;;4989493;28;20679;-48
2024/01/30 03:16:57;;;;;;;1.52;1.20;;;19.60;50.60;;;;;;4990836;28;20038;-48
2024/01/30 03:19:23;;;;;;;1.75;1.40;;;19.50;50.60;;;;;;4995262;28;20056;-51
2024/01/30 03:21:48;;;;;;;1.42;1.13;;;19.50;50.50;;;;;;4990707;28;20053;-52
2024/01/30 03:24:14;;;;;;;2.67;1.20;;;19.50;50.50;;;;;;4990796;28;20583;-48
2024/01/30 03:26:39;;;;;;;1.58;1.27;;;19.50;50.60;;;;;;4995561;28;20120;-50
2024/01/30 03:29:05;;;;;;;1.80;1.30;;;19.50;50.60;;;;;;4992017;28;20038;-50
2024/01/30 03:31:30;;;;;;;2.47;1.40;;;19.40;50.50;;;;;;4990400;28;20067;-48
2024/01/30 03:33:56;;;;;;;1.15;1.00;;;19.40;50.50;;;;;;4995064;28;20089;-52
2024/01/30 03:36:21;;;;;;;2.30;1.20;;;19.40;51.20;;;;;;4991617;28;20111;-48
2024/01/30 03:38:47;;;;;;;1.67;1.33;;;19.40;50.50;;;;;;4991823;28;20026;-51
2024/01/30 03:41:12;;;;;;;1.23;0.73;;;19.40;50.60;;;;;;4997594;28;20142;-47
2024/01/30 03:43:38;;;;;;;1.60;1.10;;;19.40;50.60;;;;;;4991063;28;20026;-47
2024/01/30 03:46:04;;;;;;;2.05;1.55;;;19.40;50.60;;;;;;4993338;28;20041;-47
2024/01/30 03:48:30;;;;;;;2.10;1.17;;;19.40;50.60;;;;;;4995110;28;20026;-49
2024/01/30 03:50:55;;;;;;;1.45;1.30;;;19.30;50.60;;;;;;4989814;28;20042;-51
2024/01/30 03:53:21;;;;;;;1.25;0.90;;;19.30;50.60;;;;;;4983736;28;20026;-48
2024/01/30 03:55:47;;;;;;;1.33;1.17;;;19.30;50.60;;;;;;4992347;28;20034;-47
2024/01/30 03:58:12;;;;;;;1.95;1.30;;;19.30;50.70;;;;;;4989496;28;20121;-48
2024/01/30 04:00:38;;;;;;;1.98;1.05;;;19.30;50.70;;;;;;4986745;28;20032;-46
2024/01/30 04:03:03;;;;;;;2.00;1.20;;;19.30;50.70;;;;;;4992381;28;20100;-50
2024/01/30 04:05:29;;;;;;;1.50;1.10;;;19.30;50.70;;;;;;4985096;28;21008;-49
2024/01/30 04:07:54;;;;;;;4.22;1.10;;;19.30;50.80;;;;;;4989916;28;20023;-57
2024/01/30 04:10:20;;;;;;;1.52;0.85;;;19.30;50.80;;;;;;4990515;28;20037;-49
2024/01/30 04:12:45;;;;;;;2.55;1.00;;;19.20;50.70;;;;;;4986602;28;20042;-49
2024/01/30 04:15:11;;;;;;;2.58;1.02;;;19.20;50.80;;;;;;4990742;28;20034;-49
2024/01/30 04:17:36;;;;;;;3.88;1.15;;;19.20;50.80;;;;;;4993860;28;20399;-46
2024/01/30 04:20:02;;;;;;;3.40;0.98;;;19.20;50.80;;;;;;4988908;28;20023;-48
2024/01/30 04:22:28;;;;;;;4.15;1.10;;;19.30;50.80;;;;;;4994062;28;20462;-48
2024/01/30 04:24:53;;;;;;;2.92;1.30;;;19.20;50.80;;;;;;4993998;28;20075;-50
2024/01/30 04:27:19;;;;;;;2.13;1.00;;;19.20;50.80;;;;;;4993638;28;20026;-49
2024/01/30 04:29:44;;;;;;;1.63;1.08;;;19.20;50.80;;;;;;4999983;28;20749;-50
2024/01/30 04:32:10;;;;;;;1.10;1.00;;;19.20;50.80;;;;;;4999527;28;20042;-48
2024/01/30 04:34:36;;;;;;;2.10;1.20;;;19.20;50.80;;;;;;4995626;28;20388;-47
2024/01/30 04:37:02;;;;;;;1.10;0.98;;;19.20;50.70;;;;;;4997692;28;20145;-51
2024/01/30 04:39:28;;;;;;;1.13;0.93;;;19.20;50.70;;;;;;4992138;28;20168;-48
2024/01/30 04:41:53;;;;;;;1.38;1.27;;;19.20;50.70;;;;;;4996358;28;20076;-51
2024/01/30 04:44:19;;;;;;;2.85;1.13;;;19.20;50.60;;;;;;4997942;28;20065;-51
2024/01/30 04:46:44;;;;;;;1.92;1.20;;;19.20;50.60;;;;;;4989640;28;20781;-51
2024/01/30 04:49:10;;;;;;;1.27;0.90;;;19.20;50.70;;;;;;4997350;28;20037;-49
2024/01/30 04:51:36;;;;;;;1.30;1.00;;;19.20;50.60;;;;;;4997661;28;20479;-48
2024/01/30 04:54:01;;;;;;;2.60;1.23;;;19.20;50.60;;;;;;4992625;28;20038;-47
2024/01/30 04:56:27;;;;;;;2.00;0.80;;;19.20;50.60;;;;;;4997156;28;20608;-50
2024/01/30 04:58:52;;;;;;;1.23;1.02;;;19.20;50.60;;;;;;4998698;28;20096;-48
2024/01/30 05:01:18;;;;;;;1.50;1.17;;;19.20;50.60;;;;;;4990036;28;20138;-47
2024/01/30 05:03:43;;;;;;;2.03;0.90;;;19.20;50.50;;;;;;5002084;28;20091;-47
2024/01/30 05:06:09;;;;;;;1.10;1.00;;;19.20;50.50;;;;;;4995633;28;20068;-47
2024/01/30 05:08:37;;;;;;;0.98;0.73;;;19.20;50.50;;;;;;4995339;28;20030;-48
2024/01/30 05:11:05;;;;;;;2.42;1.00;;;19.20;50.50;;;;;;5000359;28;20027;-48
2024/01/30 05:13:31;;;;;;;2.03;1.05;;;19.20;50.40;;;;;;4999391;28;20057;-53
2024/01/30 05:15:57;;;;;;;1.90;0.90;;;19.20;50.40;;;;;;4975543;28;20031;-49
2024/01/30 05:18:23;;;;;;;1.40;1.27;;;19.20;50.40;;;;;;5000688;28;20387;-47
2024/01/30 05:20:49;;;;;;;0.90;0.70;;;19.20;50.40;;;;;;4992229;28;20117;-48
2024/01/30 05:23:15;;;;;;;1.08;0.98;;;19.20;50.40;;;;;;4992409;28;20117;-48
2024/01/30 05:25:40;;;;;;;1.25;0.90;;;19.20;50.40;;;;;;5000450;28;20567;-47
2024/01/30 05:28:06;;;;;;;1.75;1.00;;;19.20;50.30;;;;;;4992908;28;20040;-52
2024/01/30 05:30:31;;;;;;;1.55;0.90;;;19.20;50.40;;;;;;4992555;28;20080;-48
2024/01/30 05:32:57;;;;;;;2.42;0.95;;;19.30;50.30;;;;;;5000378;28;20381;-51
2024/01/30 05:35:22;;;;;;;1.55;0.88;;;19.30;50.30;;;;;;4994198;28;20026;-49
2024/01/30 05:37:49;;;;;;;0.80;0.70;;;19.20;50.30;;;;;;4995853;28;20053;-47
2024/01/30 05:40:15;;;;;;;1.45;1.00;;;19.30;50.30;;;;;;4986588;28;20041;-52
2024/01/30 05:42:41;;;;;;;1.98;1.00;;;19.30;50.30;;;;;;4993545;28;20033;-47
2024/01/30 05:45:07;;;;;;;1.25;1.00;;;19.30;50.30;;;;;;4998556;28;20461;-50
2024/01/30 05:47:33;;;;;;;1.88;1.40;;;19.20;50.40;;;;;;4997488;28;20112;-46
2024/01/30 05:49:59;;;;;;;2.60;1.13;;;19.20;50.50;;;;;;4992100;28;20202;-48
2024/01/30 05:52:25;;;;;;;2.55;1.00;;;19.20;50.70;;;;;;4997436;28;20038;-46
2024/01/30 05:54:50;;;;;;;3.47;1.00;;;19.10;50.80;;;;;;4998367;28;20712;-48
2024/01/30 05:57:16;;;;;;;1.25;1.00;;;19.10;50.80;;;;;;4990539;28;20450;-49
2024/01/30 05:59:43;;;;;;;2.35;1.30;;;19.10;50.60;;;;;;4995855;28;20030;-48
2024/01/30 06:02:11;;;;;;;1.80;1.30;;;19.10;50.60;;;;;;4996525;28;20034;-49
2024/01/30 06:04:36;;;;;;;1.30;0.93;;;19.10;50.70;;;;;;4989595;28;20057;-52
2024/01/30 06:07:02;;;;;;;2.90;1.00;;;19.10;50.80;;;;;;4996756;28;20519;-48
2024/01/30 06:09:28;;;;;;;1.30;0.98;;;19.10;50.80;;;;;;4997376;28;20027;-49
2024/01/30 06:11:54;;;;;;;2.05;1.20;;;19.10;50.90;;;;;;4989253;28;20046;-49
2024/01/30 06:14:20;;;;;;;1.80;1.10;;;19.10;50.80;;;;;;5001696;28;20082;-53
2024/01/30 06:16:45;;;;;;;5.85;0.98;;;19.10;50.80;;;;;;4994585;28;20539;-49
2024/01/30 06:19:11;;;;;;;5.03;1.08;;;19.10;50.90;;;;;;4991457;28;20588;-53
2024/01/30 06:21:38;;;;;;;1.90;1.00;;;19.10;50.90;;;;;;4999722;28;21046;-48
2024/01/30 06:24:04;;;;;;;2.47;1.00;;;19.10;50.90;;;;;;4996533;28;20025;-50
2024/01/30 06:26:30;;;;;;;1.55;1.00;;;19.10;51.00;;;;;;4995588;28;20128;-51
2024/01/30 06:28:56;;;;;;;1.42;0.93;;;19.00;51.00;;;;;;5000502;28;20504;-48
2024/01/30 06:31:21;;;;;;;2.70;1.15;;;19.10;51.10;;;;;;4994330;28;20125;-49
2024/01/30 06:33:47;;;;;;;2.67;0.82;;;19.00;51.10;;;;;;4988650;28;20677;-48
2024/01/30 06:36:13;;;;;;;1.20;0.80;;;19.00;51.10;;;;;;5001971;28;20042;-47
2024/01/30 06:38:39;;;;;;;1.85;1.08;;;19.00;51.10;;;;;;4995994;28;20597;-47
2024/01/30 06:41:04;;;;;;;3.17;1.63;;;19.00;51.10;;;;;;5000163;28;20056;-47
2024/01/30 06:43:30;;;;;;;4.25;1.38;;;19.00;51.10;;;;;;4999373;28;20023;-49
2024/01/30 06:45:55;;;;;;;4.15;1.17;;;18.90;51.10;;;;;;4995058;28;20487;-50
2024/01/30 06:48:21;;;;;;;2.42;1.25;;;19.00;51.10;;;;;;4995642;28;20113;-50
2024/01/30 06:50:47;;;;;;;3.10;1.30;;;18.90;50.90;;;;;;4997888;28;20028;-50
2024/01/30 06:53:13;;;;;;;2.75;1.30;;;18.90;51.00;;;;;;4990640;28;20030;-51
2024/01/30 06:55:38;;;;;;;2.00;1.05;;;19.00;51.00;;;;;;4998580;28;20031;-50
2024/01/30 06:58:04;;;;;;;1.60;1.20;;;18.90;50.90;;;;;;4999123;28;20030;-51
2024/01/30 07:00:31;;;;;;;2.28;1.23;;;18.90;50.90;;;;;;4983769;28;20033;-49
2024/01/30 07:02:56;;;;;;;2.75;1.27;;;18.90;50.90;;;;;;4990130;28;20053;-50
2024/01/30 07:05:22;;;;;;;8.07;1.83;;;19.00;50.80;;;;;;4996397;28;20053;-51
2024/01/30 07:07:47;;;;;;;2.92;1.30;;;18.90;50.90;;;;;;4991770;28;20077;-51
2024/01/30 07:10:13;;;;;;;2.05;1.52;;;18.90;50.90;;;;;;4994967;28;20057;-51
2024/01/30 07:12:38;;;;;;;3.95;1.80;;;18.90;50.90;;;;;;4996365;28;20064;-48
2024/01/30 07:15:07;;;;;;;7.25;1.80;;;18.90;50.90;;;;;;4994850;28;20356;-47
2024/01/30 07:17:33;;;;;;;4.28;1.65;;;18.90;50.90;;;;;;4995004;28;20065;-52
2024/01/30 07:19:59;;;;;;;5.07;1.98;;;18.90;50.80;;;;;;5006814;28;20049;-49
2024/01/30 07:22:24;;;;;;;2.75;1.80;;;18.90;50.80;;;;;;4988189;28;20033;-51
2024/01/30 07:24:51;;;;;;;2.70;1.75;;;18.90;50.80;;;;;;5006471;28;20057;-52
2024/01/30 07:27:17;;;;;;;3.30;1.40;;;18.90;50.90;;;;;;5003433;28;20033;-51
2024/01/30 07:29:43;;;;;;;3.53;1.52;;;18.90;50.80;;;;;;4983328;28;20507;-50
2024/01/30 07:32:08;;;;;;;5.65;1.60;;;18.90;50.80;;;;;;4995069;28;20034;-50
2024/01/30 07:34:34;;;;;;;2.70;1.50;;;18.90;50.90;;;;;;4993840;28;20030;-48
2024/01/30 07:36:59;;;;;;;2.53;1.50;;;18.80;50.90;;;;;;4993919;28;20459;-48
2024/01/30 07:39:25;;;;;;;4.90;2.72;;;18.80;50.90;;;;;;4996418;28;20511;-48
2024/01/30 07:41:50;;;;;;;6.88;3.42;;;18.80;51.60;;;;;;4994231;28;20495;-51
2024/01/30 07:44:16;;;;;;;9.23;4.38;;;18.90;51.60;;;;;;4992763;28;20031;-48
2024/01/30 07:46:41;;;;;;;13.27;4.70;;;18.90;51.80;;;;;;4999342;28;20547;-48
2024/01/30 07:49:07;;;;;;;12.68;4.97;;;18.90;51.90;;;;;;4993524;28;20034;-51
2024/01/30 07:51:32;;;;;;;11.10;4.50;;;18.90;51.90;;;;;;4992722;28;20035;-48
2024/01/30 07:53:58;;;;;;;8.75;4.43;;;18.80;51.80;;;;;;4997771;28;20376;-49
2024/01/30 07:56:24;;;;;;;9.38;4.30;;;18.80;51.80;;;;;;4995322;28;20033;-50
2024/01/30 07:58:49;;;;;;;13.57;5.03;;;18.80;51.80;;;;;;4982999;28;20065;-47
2024/01/30 08:01:15;;;;;;;11.45;4.88;;;18.70;51.80;;;;;;4973890;28;20583;-46
2024/01/30 08:03:41;;;;;;;17.02;5.60;;;18.80;52.20;;;;;;4987047;28;20042;-47
2024/01/30 08:06:07;;;;;;;8.73;3.88;;;18.80;52.30;;;;;;4991735;28;20407;-49
2024/01/30 08:08:33;;;;;;;9.23;4.47;;;18.80;52.40;;;;;;4991714;28;20114;-49
2024/01/30 08:10:58;;;;;;;7.40;4.03;;;18.90;52.40;;;;;;4986958;28;20647;-49
2024/01/30 08:13:24;;;;;;;10.23;3.80;;;18.90;52.40;;;;;;4985300;28;20426;-49
2024/01/30 08:15:49;;;;;;;13.68;4.65;;;18.90;52.30;;;;;;4988758;28;20087;-48
2024/01/30 08:18:14;;;;;;;9.18;3.63;;;19.00;52.20;;;;;;4990879;28;20536;-49
2024/01/30 08:20:40;;;;;;;12.50;3.92;;;19.00;52.20;;;;;;4994938;28;20405;-46
2024/01/30 08:23:06;;;;;;;7.90;3.65;;;19.00;52.00;;;;;;4971237;28;20046;-49
2024/01/30 08:25:31;;;;;;;7.88;3.83;;;19.00;52.10;;;;;;4991597;28;20025;-49
2024/01/30 08:27:57;;;;;;;9.65;4.80;;;19.00;52.00;;;;;;4988747;28;20045;-49
2024/01/30 08:30:22;;;;;;;8.27;3.75;;;19.00;51.90;;;;;;4983067;28;20038;-51
2024/01/30 08:32:48;;;;;;;7.85;3.60;;;19.00;51.90;;;;;;4988041;28;20042;-49
2024/01/30 08:35:15;;;;;;;7.40;3.13;;;19.10;51.90;;;;;;4986843;28;20029;-50
2024/01/30 08:37:41;;;;;;;9.65;4.47;;;19.10;51.80;;;;;;4989501;28;20045;-49
2024/01/30 08:40:08;;;;;;;7.90;3.22;;;19.10;51.70;;;;;;4974910;28;20030;-50
2024/01/30 08:42:34;;;;;;;9.43;3.15;;;19.10;51.70;;;;;;4982956;28;20134;-49
2024/01/30 08:44:59;;;;;;;6.40;3.50;;;19.10;51.60;;;;;;4988677;28;20128;-47
2024/01/30 08:47:25;;;;;;;6.40;3.42;;;19.20;51.60;;;;;;4988279;28;20038;-47
2024/01/30 08:49:51;;;;;;;7.78;3.40;;;19.20;51.60;;;;;;4988939;28;20446;-47
2024/01/30 08:52:17;;;;;;;6.15;2.78;;;19.20;51.50;;;;;;4985405;28;20050;-51
2024/01/30 08:54:42;;;;;;;5.03;3.17;;;19.20;51.40;;;;;;4986913;28;20026;-48
2024/01/30 08:57:08;;;;;;;5.75;2.70;;;19.20;51.40;;;;;;4983855;28;20458;-46
2024/01/30 08:59:33;;;;;;;4.90;3.00;;;19.30;51.40;;;;;;4988141;28;20076;-47
2024/01/30 09:01:59;;;;;;;5.30;2.70;;;19.30;51.20;;;;;;4987658;28;20065;-47
2024/01/30 09:04:25;;;;;;;6.05;2.70;;;19.30;51.20;;;;;;4986026;28;20031;-49
2024/01/30 09:06:50;;;;;;;6.47;3.38;;;19.30;51.10;;;;;;4969562;28;20536;-49
2024/01/30 09:09:16;;;;;;;5.13;2.88;;;19.30;51.00;;;;;;4985241;28;20046;-46
2024/01/30 09:11:41;;;;;;;4.10;2.22;;;19.40;51.00;;;;;;4982172;28;20030;-49
2024/01/30 09:14:07;;;;;;;4.35;2.85;;;19.40;51.00;;;;;;4990069;28;20476;-46
2024/01/30 09:16:32;;;;;;;3.50;2.35;;;19.30;50.90;;;;;;4987362;28;20093;-48
2024/01/30 09:18:58;;;;;;;5.88;2.92;;;19.40;50.90;;;;;;4988653;28;20033;-48
2024/01/30 09:21:23;;;;;;;6.05;2.10;;;19.40;51.00;;;;;;4985660;28;20265;-49
2024/01/30 09:23:49;;;;;;;3.88;2.05;;;19.40;51.00;;;;;;4988159;28;20035;-50
2024/01/30 09:26:14;;;;;;;5.78;2.83;;;19.30;50.90;;;;;;4980265;28;20775;-49
2024/01/30 09:28:42;;;;;;;3.47;2.30;;;19.30;51.00;;;;;;4986829;28;20045;-48
2024/01/30 09:31:11;;;;;;;3.97;2.28;;;19.30;51.10;;;;;;4990373;28;20120;-48
2024/01/30 09:33:37;;;;;;;4.93;2.55;;;19.30;51.10;;;;;;4982238;28;20096;-47
2024/01/30 09:36:02;;;;;;;3.22;2.22;;;19.20;51.10;;;;;;4985057;28;20492;-49
2024/01/30 09:38:28;;;;;;;5.85;2.92;;;19.20;51.20;;;;;;4981233;28;20073;-51
2024/01/30 09:40:56;;;;;;;7.30;2.88;;;19.20;51.20;;;;;;4994909;28;20034;-50
2024/01/30 09:43:23;;;;;;;4.20;2.00;;;19.20;51.30;;;;;;4992447;28;20031;-49
2024/01/30 09:45:50;;;;;;;4.40;2.45;;;19.10;51.30;;;;;;4987676;28;20053;-49
2024/01/30 09:48:16;;;;;;;3.42;2.00;;;19.10;51.30;;;;;;4999715;28;20096;-48
2024/01/30 09:50:41;;;;;;;7.57;1.88;;;19.10;51.30;;;;;;4993978;28;20695;-49
2024/01/30 09:53:08;;;;;;;4.50;2.25;;;19.10;51.40;;;;;;4991036;28;20026;-49
2024/01/30 09:55:36;;;;;;;5.93;2.05;;;19.10;51.40;;;;;;4995751;28;20031;-47
2024/01/30 09:58:02;;;;;;;5.88;2.20;;;19.10;51.30;;;;;;4992379;28;20069;-49
2024/01/30 10:00:27;;;;;;;3.70;1.85;;;19.20;51.30;;;;;;4988414;28;20042;-47
2024/01/30 10:02:53;;;;;;;3.97;2.22;;;19.20;51.20;;;;;;4999376;28;20175;-47
2024/01/30 10:05:20;;;;;;;3.17;2.28;;;19.20;51.00;;;;;;4973074;28;20030;-46
2024/01/30 10:07:55;;;;;;;5.47;2.53;;;19.20;51.00;;;;;;4992314;28;20518;-54
2024/01/30 10:10:23;;;;;;;3.60;1.80;;;19.30;50.90;;;;;;4993601;28;20492;-52
2024/01/30 10:12:49;;;;;;;3.47;2.25;;;19.30;50.80;;;;;;4992499;28;20029;-49
2024/01/30 10:15:15;;;;;;;4.32;2.20;;;19.40;50.80;;;;;;4995321;28;20564;-55
2024/01/30 10:17:40;;;;;;;3.33;1.90;;;19.40;50.70;;;;;;4997273;28;20404;-49
2024/01/30 10:20:07;;;;;;;3.75;1.70;;;19.40;50.60;;;;;;4990650;28;20034;-55
2024/01/30 10:22:33;;;;;;;3.15;1.85;;;19.40;50.70;;;;;;5007384;23;20446;-55
2024/01/30 10:25:00;;;;;;;5.53;2.20;;;19.40;50.50;;;;;;5025674;28;20029;-55
2024/01/30 10:27:29;;;;;;;4.90;2.20;;;19.40;50.40;;;;;;5025572;28;20034;-52
2024/01/30 10:29:55;;;;;;;5.15;2.35;;;19.40;50.20;;;;;;5024951;28;20076;-55
2024/01/30 10:32:21;;;;;;;2.40;1.80;;;19.40;50.20;;;;;;5024759;28;20481;-56
2024/01/30 10:34:47;;;;;;;2.83;2.20;;;19.40;50.00;;;;;;5025002;28;20037;-52
2024/01/30 10:37:15;;;;;;;3.60;1.65;;;19.40;49.90;;;;;;5027766;28;20025;-54
2024/01/30 10:39:42;;;;;;;2.53;1.70;;;19.40;49.70;;;;;;5026478;28;20503;-53
2024/01/30 10:42:13;;;;;;;4.88;2.30;;;19.40;49.60;;;;;;5011476;28;20041;-55
2024/01/30 10:45:08;;;;;;;6.18;2.30;;;19.40;49.60;;;;;;5018685;28;20103;-57
2024/01/30 10:47:39;;;;;;;3.92;2.22;;;19.30;49.40;;;;;;5015007;28;20048;-53
2024/01/30 10:50:05;;;;;;;2.70;1.98;;;19.40;49.60;;;;;;4999854;28;20040;-56
2024/01/30 10:52:32;;;;;;;3.30;2.05;;;19.40;49.70;;;;;;5014412;28;20049;-56
2024/01/30 10:54:58;;;;;;;6.55;2.85;;;19.40;49.90;;;;;;5014543;28;20037;-53
2024/01/30 10:57:25;;;;;;;4.35;2.40;;;19.40;50.00;;;;;;5020130;28;20455;-54
2024/01/30 10:59:59;;;;;;;4.82;2.90;;;19.40;50.10;;;;;;5027267;28;20310;-56
2024/01/30 11:02:25;;;;;;;5.60;3.38;;;19.40;50.30;;;;;;5019225;28;20033;-55
2024/01/30 11:04:59;;;;;;;5.65;2.55;;;19.40;50.40;;;;;;5019567;28;20498;-55
2024/01/30 11:07:29;;;;;;;6.50;3.38;;;19.40;50.50;;;;;;4994887;23;20042;-49
2024/01/30 11:09:58;;;;;;;7.45;3.40;;;19.40;50.60;;;;;;4985836;28;20058;-47
2024/01/30 11:12:27;;;;;;;9.00;3.30;;;19.40;50.80;;;;;;4989525;28;20112;-55
2024/01/30 11:15:10;;;;;;;8.88;3.58;;;19.50;50.90;;;;;;4991345;28;21010;-46
2024/01/30 11:17:45;;;;;;;9.73;4.10;;;19.50;51.10;;;;;;4983212;28;20030;-53
2024/01/30 11:20:33;;;;;;;7.82;4.53;;;19.50;51.40;;;;;;4994606;28;20033;-52
2024/01/30 11:22:59;;;;;;;14.18;6.10;;;19.50;51.60;;;;;;4988523;28;20053;-53
2024/01/30 11:25:25;;;;;;;14.77;6.47;;;19.60;51.70;;;;;;4989551;28;20060;-46
2024/01/30 11:27:53;;;;;;;14.43;7.25;;;19.50;51.90;;;;;;5000582;28;20037;-50
2024/01/30 11:30:26;;;;;;;11.82;7.85;;;19.50;52.00;;;;;;4991349;28;20037;-48
2024/01/30 11:33:04;;;;;;;15.52;7.70;;;19.60;52.20;;;;;;4989604;28;20045;-54
2024/01/30 11:35:31;;;;;;;15.27;8.27;;;19.60;52.20;;;;;;4996818;28;20034;-49
2024/01/30 11:37:59;;;;;;;16.90;7.47;;;19.60;52.40;;;;;;4989710;28;20061;-47
2024/01/30 11:40:27;;;;;;;15.77;7.43;;;19.70;52.40;;;;;;4999682;28;20563;-53
2024/01/30 11:42:54;;;;;;;13.82;7.20;;;19.70;52.40;;;;;;4998218;28;20042;-48
2024/01/30 11:45:19;;;;;;;15.65;7.40;;;19.70;52.40;;;;;;4989741;28;20035;-53
2024/01/30 11:47:45;;;;;;;13.15;6.93;;;19.80;52.50;;;;;;4998824;28;20083;-47
2024/01/30 11:50:11;;;;;;;14.77;7.03;;;19.80;52.50;;;;;;4996548;28;21025;-48
2024/01/30 11:52:36;;;;;;;11.35;5.95;;;19.80;52.40;;;;;;4992899;28;20034;-52
2024/01/30 11:55:02;;;;;;;10.10;6.32;;;19.80;52.50;;;;;;4993786;28;20038;-50
2024/01/30 11:57:29;;;;;;;10.35;5.15;;;19.80;52.40;;;;;;5005689;28;20399;-48
2024/01/30 11:59:54;;;;;;;13.40;6.13;;;19.80;52.30;;;;;;4993857;28;20038;-50
2024/01/30 12:02:20;;;;;;;15.48;5.55;;;19.90;52.50;;;;;;4997794;28;20038;-55
2024/01/30 12:04:46;;;;;;;12.77;5.93;;;19.80;52.40;;;;;;4993697;28;20120;-49
2024/01/30 12:07:15;;;;;;;16.40;6.00;;;19.90;52.30;;;;;;4992639;28;20497;-48
2024/01/30 12:09:41;;;;;;;14.30;6.05;;;19.90;52.40;;;;;;5003955;28;20044;-53
2024/01/30 12:12:11;;;;;;;11.70;5.32;;;19.90;52.20;;;;;;4995774;28;20294;-50
2024/01/30 12:14:39;;;;;;;11.15;5.88;;;19.90;52.30;;;;;;4998272;28;20048;-53
2024/01/30 12:17:04;;;;;;;10.07;5.13;;;19.90;52.30;;;;;;4999584;28;20491;-51
2024/01/30 12:19:30;;;;;;;8.70;5.07;;;19.90;52.20;;;;;;4993403;28;20036;-49
2024/01/30 12:21:56;;;;;;;10.25;4.38;;;19.90;52.20;;;;;;5001512;28;20104;-50
2024/01/30 12:24:22;;;;;;;11.43;5.40;;;19.90;52.20;;;;;;4999413;28;20048;-49
2024/01/30 12:26:48;;;;;;;10.93;4.75;;;20.00;52.20;;;;;;4994741;28;20038;-48
2024/01/30 12:29:14;;;;;;;10.07;4.82;;;19.90;52.20;;;;;;4999006;28;20037;-47
2024/01/30 12:31:42;;;;;;;8.52;5.80;;;20.00;52.30;;;;;;4995022;28;20056;-48
2024/01/30 12:34:08;;;;;;;8.27;4.90;;;19.90;52.20;;;;;;4993333;28;20042;-47
2024/01/30 12:36:34;;;;;;;9.98;4.93;;;19.90;52.20;;;;;;4979319;28;20053;-49
2024/01/30 12:39:01;;;;;;;10.30;4.55;;;19.90;52.10;;;;;;4988708;28;20411;-48
2024/01/30 12:41:28;;;;;;;11.35;4.50;;;19.90;52.00;;;;;;4986890;28;20042;-49